sensor_id;sensor_type;location;lat;lon;timestamp;pressure;altitude;pressure_sealevel;temperature;humidity
37132;BME280;23035;50.032;21.978;2023-02-11T00:02:25;65265.66;;;0.94;100.00
37132;BME280;23035;50.032;21.978;2023-02-11T00:07:33;65228.97;;;0.59;100.00
37132;BME280;23035;50.032;21.978;2023-02-11T00:12:38;65281.53;;;1.07;100.00
37132;BME280;23035;50.032;21.978;2023-02-11T00:17:42;65233.53;;;0.58;100.00
37132;BME280;23035;50.032;21.978;2023-02-11T00:22:48;65249.41;;;0.71;100.00
37132;BME280;23035;50.032;21.978;2023-02-11T00:27:52;65216.00;;;0.42;100.00
37132;BME280;23035;50.032;21.978;2023-02-11T00:32:56;65206.63;;;0.38;100.00
37132;BME280;23035;50.032;21.978;2023-02-11T00:38:02;65253.34;;;0.80;100.00
37132;BME280;23035;50.032;21.978;2023-02-11T00:43:07;65323.56;;;1.47;100.00
37132;BME280;23035;50.032;21.978;2023-02-11T00:48:11;65258.56;;;0.82;100.00
37132;BME280;23035;50.032;21.978;2023-02-11T00:53:17;65209.09;;;0.35;100.00
37132;BME280;23035;50.032;21.978;2023-02-11T00:58:21;65227.69;;;0.53;100.00
37132;BME280;23035;50.032;21.978;2023-02-11T01:03:26;65255.47;;;0.82;100.00
37132;BME280;23035;50.032;21.978;2023-02-11T01:08:31;65262.28;;;0.86;100.00
37132;BME280;23035;50.032;21.978;2023-02-11T01:13:36;65263.34;;;0.87;100.00
37132;BME280;23035;50.032;21.978;2023-02-11T01:18:41;65270.78;;;0.94;100.00
37132;BME280;23035;50.032;21.978;2023-02-11T01:23:47;65256.44;;;0.80;100.00
37132;BME280;23035;50.032;21.978;2023-02-11T01:28:51;65238.34;;;0.63;100.00
37132;BME280;23035;50.032;21.978;2023-02-11T01:33:56;65258.03;;;0.82;100.00
37132;BME280;23035;50.032;21.978;2023-02-11T01:39:02;65211.63;;;0.35;100.00
37132;BME280;23035;50.032;21.978;2023-02-11T01:44:25;65233.22;;;0.63;100.00
37132;BME280;23035;50.032;21.978;2023-02-11T01:49:32;65221.97;;;0.50;100.00
37132;BME280;23035;50.032;21.978;2023-02-11T01:54:41;65203.25;;;0.30;100.00
37132;BME280;23035;50.032;21.978;2023-02-11T02:00:09;65173.03;;;0.03;100.00
37132;BME280;23035;50.032;21.978;2023-02-11T02:05:22;65160.16;;;-0.12;100.00
37132;BME280;23035;50.032;21.978;2023-02-11T02:10:29;65212.16;;;0.36;100.00
37132;BME280;23035;50.032;21.978;2023-02-11T02:15:35;65229.72;;;0.52;100.00
37132;BME280;23035;50.032;21.978;2023-02-11T02:21:35;65239.94;;;0.65;100.00
37132;BME280;23035;50.032;21.978;2023-02-11T02:27:02;65191.13;;;0.20;100.00
37132;BME280;23035;50.032;21.978;2023-02-11T02:32:39;65152.63;;;-0.21;100.00
37132;BME280;23035;50.032;21.978;2023-02-11T02:37:52;65159.63;;;-0.12;100.00
37132;BME280;23035;50.032;21.978;2023-02-11T02:43:00;65179.53;;;0.12;100.00
37132;BME280;23035;50.032;21.978;2023-02-11T02:48:23;65123.59;;;-0.44;100.00
37132;BME280;23035;50.032;21.978;2023-02-11T02:53:34;65177.19;;;0.05;100.00
37132;BME280;23035;50.032;21.978;2023-02-11T02:59:22;65131.47;;;-0.39;100.00
37132;BME280;23035;50.032;21.978;2023-02-11T03:04:34;65167.94;;;-0.09;100.00
37132;BME280;23035;50.032;21.978;2023-02-11T03:09:44;65100.53;;;-0.71;100.00
37132;BME280;23035;50.032;21.978;2023-02-11T03:14:51;65076.75;;;-0.92;100.00
37132;BME280;23035;50.032;21.978;2023-02-11T03:19:57;65083.03;;;-0.88;100.00
37132;BME280;23035;50.032;21.978;2023-02-11T03:25:03;65041.91;;;-1.20;100.00
37132;BME280;23035;50.032;21.978;2023-02-11T03:30:12;65118.84;;;-0.49;100.00
37132;BME280;23035;50.032;21.978;2023-02-11T03:35:23;65086.72;;;-0.84;100.00
37132;BME280;23035;50.032;21.978;2023-02-11T03:40:30;65092.69;;;-0.76;100.00
37132;BME280;23035;50.032;21.978;2023-02-11T03:45:36;65107.13;;;-0.60;100.00
37132;BME280;23035;50.032;21.978;2023-02-11T03:50:44;65060.81;;;-1.07;100.00
37132;BME280;23035;50.032;21.978;2023-02-11T03:55:50;65080.78;;;-0.93;100.00
37132;BME280;23035;50.032;21.978;2023-02-11T04:00:55;65070.78;;;-1.00;100.00
37132;BME280;23035;50.032;21.978;2023-02-11T04:06:01;65060.59;;;-1.12;100.00
37132;BME280;23035;50.032;21.978;2023-02-11T04:11:05;65100.88;;;-0.76;100.00
37132;BME280;23035;50.032;21.978;2023-02-11T04:16:10;65109.03;;;-0.63;100.00
37132;BME280;23035;50.032;21.978;2023-02-11T04:21:15;65032.13;;;-1.34;100.00
37132;BME280;23035;50.032;21.978;2023-02-11T04:26:19;65087.38;;;-0.81;100.00
37132;BME280;23035;50.032;21.978;2023-02-11T04:31:24;65102.66;;;-0.69;100.00
37132;BME280;23035;50.032;21.978;2023-02-11T04:36:29;65065.91;;;-1.07;100.00
37132;BME280;23035;50.032;21.978;2023-02-11T04:41:34;65116.59;;;-0.53;100.00
37132;BME280;23035;50.032;21.978;2023-02-11T04:46:38;65075.06;;;-0.96;100.00
37132;BME280;23035;50.032;21.978;2023-02-11T04:51:44;65039.34;;;-1.32;100.00
37132;BME280;23035;50.032;21.978;2023-02-11T04:56:51;65080.56;;;-0.85;99.49
37132;BME280;23035;50.032;21.978;2023-02-11T05:01:55;65123.50;;;-0.47;98.16
37132;BME280;23035;50.032;21.978;2023-02-11T05:07:01;65098.00;;;-0.71;98.75
37132;BME280;23035;50.032;21.978;2023-02-11T05:12:05;65078.88;;;-0.90;100.00
37132;BME280;23035;50.032;21.978;2023-02-11T05:17:09;64992.97;;;-1.69;100.00
37132;BME280;23035;50.032;21.978;2023-02-11T05:22:15;65055.94;;;-1.14;100.00
37132;BME280;23035;50.032;21.978;2023-02-11T05:27:19;65000.41;;;-1.62;100.00
37132;BME280;23035;50.032;21.978;2023-02-11T05:32:24;65012.50;;;-1.53;100.00
37132;BME280;23035;50.032;21.978;2023-02-11T05:37:30;65051.66;;;-1.18;100.00
37132;BME280;23035;50.032;21.978;2023-02-11T05:42:34;65033.09;;;-1.36;100.00
37132;BME280;23035;50.032;21.978;2023-02-11T05:47:38;64988.19;;;-1.74;100.00
37132;BME280;23035;50.032;21.978;2023-02-11T05:52:44;64980.66;;;-1.84;100.00
37132;BME280;23035;50.032;21.978;2023-02-11T05:57:49;65029.50;;;-1.37;100.00
37132;BME280;23035;50.032;21.978;2023-02-11T06:02:53;64988.09;;;-1.77;100.00
37132;BME280;23035;50.032;21.978;2023-02-11T06:07:59;65031.09;;;-1.35;100.00
37132;BME280;23035;50.032;21.978;2023-02-11T06:13:04;65050.19;;;-1.17;100.00
37132;BME280;23035;50.032;21.978;2023-02-11T06:18:09;65043.81;;;-1.23;100.00
37132;BME280;23035;50.032;21.978;2023-02-11T06:23:15;65037.56;;;-1.27;100.00
37132;BME280;23035;50.032;21.978;2023-02-11T06:28:19;65026.72;;;-1.42;100.00
37132;BME280;23035;50.032;21.978;2023-02-11T06:33:24;65071.22;;;-1.02;100.00
37132;BME280;23035;50.032;21.978;2023-02-11T06:38:32;65075.69;;;-0.93;98.27
37132;BME280;23035;50.032;21.978;2023-02-11T06:43:36;65094.06;;;-0.80;98.21
37132;BME280;23035;50.032;21.978;2023-02-11T06:48:40;65041.59;;;-1.28;100.00
37132;BME280;23035;50.032;21.978;2023-02-11T06:53:47;65063.38;;;-1.07;99.86
37132;BME280;23035;50.032;21.978;2023-02-11T06:58:53;65047.31;;;-1.25;100.00
37132;BME280;23035;50.032;21.978;2023-02-11T07:03:58;65016.44;;;-1.45;100.00
37132;BME280;23035;50.032;21.978;2023-02-11T07:09:04;65097.56;;;-0.69;98.03
37132;BME280;23035;50.032;21.978;2023-02-11T07:14:09;65019.41;;;-1.47;100.00
37132;BME280;23035;50.032;21.978;2023-02-11T07:19:15;65044.03;;;-1.18;100.00
37132;BME280;23035;50.032;21.978;2023-02-11T07:24:20;65048.72;;;-1.16;100.00
37132;BME280;23035;50.032;21.978;2023-02-11T07:29:25;65016.22;;;-1.50;100.00
37132;BME280;23035;50.032;21.978;2023-02-11T07:34:29;65062.50;;;-1.03;99.03
37132;BME280;23035;50.032;21.978;2023-02-11T07:39:36;65154.88;;;-0.17;95.21
37132;BME280;23035;50.032;21.978;2023-02-11T07:44:40;65077.81;;;-0.91;96.42
37132;BME280;23035;50.032;21.978;2023-02-11T07:49:44;65069.84;;;-0.98;96.87
37132;BME280;23035;50.032;21.978;2023-02-11T07:54:51;65084.50;;;-0.89;96.00
37132;BME280;23035;50.032;21.978;2023-02-11T07:59:55;65130.31;;;-0.43;93.48
37132;BME280;23035;50.032;21.978;2023-02-11T08:04:59;65092.03;;;-0.79;97.48
37132;BME280;23035;50.032;21.978;2023-02-11T08:10:05;65147.31;;;-0.26;91.66
37132;BME280;23035;50.032;21.978;2023-02-11T08:15:10;65074.94;;;-0.98;96.71
37132;BME280;23035;50.032;21.978;2023-02-11T08:20:14;65081.00;;;-0.88;96.56
37132;BME280;23035;50.032;21.978;2023-02-11T08:25:20;65095.88;;;-0.73;94.40
37132;BME280;23035;50.032;21.978;2023-02-11T08:30:26;65153.47;;;-0.13;93.23
37132;BME280;23035;50.032;21.978;2023-02-11T08:35:31;65118.84;;;-0.49;93.88
37132;BME280;23035;50.032;21.978;2023-02-11T08:40:37;65135.63;;;-0.38;92.83
37132;BME280;23035;50.032;21.978;2023-02-11T08:45:41;65162.84;;;-0.09;93.03
37132;BME280;23035;50.032;21.978;2023-02-11T08:50:45;65168.78;;;-0.01;92.15
37132;BME280;23035;50.032;21.978;2023-02-11T08:55:53;65129.88;;;-0.41;93.68
37132;BME280;23035;50.032;21.978;2023-02-11T09:00:58;65169.63;;;-0.05;92.61
37132;BME280;23035;50.032;21.978;2023-02-11T09:06:05;65235.16;;;0.60;87.55
37132;BME280;23035;50.032;21.978;2023-02-11T09:11:11;65159.22;;;-0.10;90.10
37132;BME280;23035;50.032;21.978;2023-02-11T09:16:17;65196.00;;;0.15;90.52
37132;BME280;23035;50.032;21.978;2023-02-11T09:21:22;65212.69;;;0.36;88.48
37132;BME280;23035;50.032;21.978;2023-02-11T09:26:30;65207.28;;;0.28;89.13
37132;BME280;23035;50.032;21.978;2023-02-11T09:31:35;65178.78;;;0.06;90.81
37132;BME280;23035;50.032;21.978;2023-02-11T09:36:40;65185.16;;;0.12;89.67
37132;BME280;23035;50.032;21.978;2023-02-11T09:42:19;65207.28;;;0.28;87.33
37132;BME280;23035;50.032;21.978;2023-02-11T09:47:31;65256.97;;;0.81;84.73
37132;BME280;23035;50.032;21.978;2023-02-11T09:52:39;65172.41;;;0.00;88.98
37132;BME280;23035;50.032;21.978;2023-02-11T09:57:48;65238.97;;;0.66;86.90
37132;BME280;23035;50.032;21.978;2023-02-11T10:03:00;65276.75;;;1.02;84.96
37132;BME280;23035;50.032;21.978;2023-02-11T10:08:12;65233.44;;;0.56;85.51
37132;BME280;23035;50.032;21.978;2023-02-11T10:13:32;65302.81;;;1.27;83.00
37132;BME280;23035;50.032;21.978;2023-02-11T10:19:02;65288.97;;;1.14;83.84
37132;BME280;23035;50.032;21.978;2023-02-11T10:24:14;65249.72;;;0.79;84.74
37132;BME280;23035;50.032;21.978;2023-02-11T10:29:33;65355.00;;;1.77;80.96
37132;BME280;23035;50.032;21.978;2023-02-11T10:34:40;65249.06;;;0.76;84.88
37132;BME280;23035;50.032;21.978;2023-02-11T10:39:45;65302.19;;;1.24;83.44
37132;BME280;23035;50.032;21.978;2023-02-11T10:44:57;65335.59;;;1.54;83.37
37132;BME280;23035;50.032;21.978;2023-02-11T10:50:18;65315.59;;;1.39;83.56
37132;BME280;23035;50.032;21.978;2023-02-11T10:55:25;65280.47;;;1.06;85.39
37132;BME280;23035;50.032;21.978;2023-02-11T11:00:37;65421.34;;;2.36;80.75
37132;BME280;23035;50.032;21.978;2023-02-11T11:05:46;65401.66;;;2.17;81.53
37132;BME280;23035;50.032;21.978;2023-02-11T11:11:02;65383.19;;;2.04;81.10
37132;BME280;23035;50.032;21.978;2023-02-11T11:16:23;65369.91;;;1.91;82.84
37132;BME280;23035;50.032;21.978;2023-02-11T11:21:32;65436.38;;;2.52;80.08
37132;BME280;23035;50.032;21.978;2023-02-11T11:26:41;65450.94;;;2.71;79.03
37132;BME280;23035;50.032;21.978;2023-02-11T11:31:50;65501.19;;;3.09;76.34
37132;BME280;23035;50.032;21.978;2023-02-11T11:36:56;65445.75;;;2.56;80.07
37132;BME280;23035;50.032;21.978;2023-02-11T11:42:03;65519.63;;;3.34;75.51
37132;BME280;23035;50.032;21.978;2023-02-11T11:47:18;65529.72;;;3.44;76.03
37132;BME280;23035;50.032;21.978;2023-02-11T11:52:34;65510.03;;;3.25;74.82
37132;BME280;23035;50.032;21.978;2023-02-11T11:57:42;65478.56;;;2.95;76.46
37132;BME280;23035;50.032;21.978;2023-02-11T12:03:04;65556.84;;;3.67;75.08
37132;BME280;23035;50.032;21.978;2023-02-11T12:08:20;65473.66;;;2.88;79.44
37132;BME280;23035;50.032;21.978;2023-02-11T12:13:37;65475.38;;;2.92;78.97
37132;BME280;23035;50.032;21.978;2023-02-11T12:19:11;65522.91;;;3.40;76.59
37132;BME280;23035;50.032;21.978;2023-02-11T12:24:36;65536.03;;;3.48;75.92
37132;BME280;23035;50.032;21.978;2023-02-11T12:29:57;65474.72;;;2.89;79.00
37132;BME280;23035;50.032;21.978;2023-02-11T12:35:24;65463.09;;;2.80;80.03
37132;BME280;23035;50.032;21.978;2023-02-11T12:40:38;65513.66;;;3.26;77.64
37132;BME280;23035;50.032;21.978;2023-02-11T12:45:52;65452.56;;;2.73;79.88
37132;BME280;23035;50.032;21.978;2023-02-11T12:51:06;65486.47;;;3.00;80.70
37132;BME280;23035;50.032;21.978;2023-02-11T12:56:17;65418.59;;;2.30;83.17
37132;BME280;23035;50.032;21.978;2023-02-11T13:01:26;65472.16;;;2.89;81.35
37132;BME280;23035;50.032;21.978;2023-02-11T13:06:38;65474.19;;;2.88;80.17
37132;BME280;23035;50.032;21.978;2023-02-11T13:11:46;65465.34;;;2.85;79.89
37132;BME280;23035;50.032;21.978;2023-02-11T13:16:54;65435.94;;;2.54;82.55
37132;BME280;23035;50.032;21.978;2023-02-11T13:22:06;65448.00;;;2.61;83.73
37132;BME280;23035;50.032;21.978;2023-02-11T13:27:20;65458.22;;;2.73;83.75
37132;BME280;23035;50.032;21.978;2023-02-11T13:32:26;65490.94;;;3.09;82.61
37132;BME280;23035;50.032;21.978;2023-02-11T13:37:36;65417.63;;;2.32;84.30
37132;BME280;23035;50.032;21.978;2023-02-11T13:42:48;65385.97;;;2.09;85.47
37132;BME280;23035;50.032;21.978;2023-02-11T13:47:55;65474.19;;;2.88;82.83
37132;BME280;23035;50.032;21.978;2023-02-11T13:53:04;65408.78;;;2.28;87.33
37132;BME280;23035;50.032;21.978;2023-02-11T13:58:18;65384.16;;;2.03;88.88
37132;BME280;23035;50.032;21.978;2023-02-11T14:03:39;65384.16;;;2.03;89.02
37132;BME280;23035;50.032;21.978;2023-02-11T14:09:36;65404.63;;;2.27;87.10
37132;BME280;23035;50.032;21.978;2023-02-11T14:15:01;65440.09;;;2.56;86.24
37132;BME280;23035;50.032;21.978;2023-02-11T14:20:37;65387.56;;;2.11;92.13
37132;BME280;23035;50.032;21.978;2023-02-11T14:25:52;65347.97;;;1.68;100.00
37132;BME280;23035;50.032;21.978;2023-02-11T14:31:06;65333.78;;;1.59;100.00
37132;BME280;23035;50.032;21.978;2023-02-11T14:41:55;65340.50;;;1.61;100.00
37132;BME280;23035;50.032;21.978;2023-02-11T14:47:00;65297.94;;;1.20;100.00
37132;BME280;23035;50.032;21.978;2023-02-11T14:52:08;65265.47;;;0.89;100.00
37132;BME280;23035;50.032;21.978;2023-02-11T14:57:20;65277.19;;;1.00;100.00
37132;BME280;23035;50.032;21.978;2023-02-11T15:02:28;65279.63;;;0.98;100.00
37132;BME280;23035;50.032;21.978;2023-02-11T15:07:34;65259.63;;;0.83;100.00
37132;BME280;23035;50.032;21.978;2023-02-11T15:12:40;65251.09;;;0.75;100.00
37132;BME280;23035;50.032;21.978;2023-02-11T15:17:44;65263.88;;;0.88;100.00
37132;BME280;23035;50.032;21.978;2023-02-11T15:22:54;65232.38;;;0.55;100.00
37132;BME280;23035;50.032;21.978;2023-02-11T15:28:13;65254.28;;;0.78;100.00
37132;BME280;23035;50.032;21.978;2023-02-11T15:33:23;65161.22;;;-0.11;100.00
37132;BME280;23035;50.032;21.978;2023-02-11T15:38:32;65206.44;;;0.33;100.00
37132;BME280;23035;50.032;21.978;2023-02-11T15:43:42;65224.28;;;0.45;100.00
37132;BME280;23035;50.032;21.978;2023-02-11T15:48:49;65181.31;;;0.06;100.00
37132;BME280;23035;50.032;21.978;2023-02-11T15:53:55;65257.16;;;0.86;100.00
37132;BME280;23035;50.032;21.978;2023-02-11T15:59:08;65167.63;;;-0.05;100.00
37132;BME280;23035;50.032;21.978;2023-02-11T16:04:17;65197.91;;;0.24;100.00
37132;BME280;23035;50.032;21.978;2023-02-11T16:09:26;65181.97;;;0.09;100.00
37132;BME280;23035;50.032;21.978;2023-02-11T16:14:35;65203.34;;;0.32;100.00
37132;BME280;23035;50.032;21.978;2023-02-11T16:19:43;65273.44;;;0.97;100.00
37132;BME280;23035;50.032;21.978;2023-02-11T16:24:50;65169.63;;;-0.05;100.00
37132;BME280;23035;50.032;21.978;2023-02-11T16:29:57;65171.31;;;-0.01;100.00
37132;BME280;23035;50.032;21.978;2023-02-11T16:35:06;65162.63;;;-0.14;100.00
37132;BME280;23035;50.032;21.978;2023-02-11T16:40:14;65202.59;;;0.26;100.00
37132;BME280;23035;50.032;21.978;2023-02-11T16:45:20;65175.06;;;0.03;100.00
37132;BME280;23035;50.032;21.978;2023-02-11T16:50:24;65237.19;;;0.60;100.00
37132;BME280;23035;50.032;21.978;2023-02-11T16:55:28;65202.69;;;0.29;100.00
37132;BME280;23035;50.032;21.978;2023-02-11T17:00:36;65238.25;;;0.61;100.00
37132;BME280;23035;50.032;21.978;2023-02-11T17:05:40;65244.72;;;0.69;100.00
37132;BME280;23035;50.032;21.978;2023-02-11T17:10:57;65242.47;;;0.65;100.00
37132;BME280;23035;50.032;21.978;2023-02-11T17:16:04;65265.34;;;0.86;100.00
37132;BME280;23035;50.032;21.978;2023-02-11T17:21:09;65217.69;;;0.46;100.00
37132;BME280;23035;50.032;21.978;2023-02-11T17:26:13;65268.75;;;0.95;100.00
37132;BME280;23035;50.032;21.978;2023-02-11T17:31:19;65229.81;;;0.55;100.00
37132;BME280;23035;50.032;21.978;2023-02-11T17:36:23;65219.81;;;0.48;100.00
37132;BME280;23035;50.032;21.978;2023-02-11T17:41:28;65243.44;;;0.63;100.00
37132;BME280;23035;50.032;21.978;2023-02-11T17:46:34;65236.84;;;0.64;100.00
37132;BME280;23035;50.032;21.978;2023-02-11T17:51:39;65259.94;;;0.79;100.00
37132;BME280;23035;50.032;21.978;2023-02-11T17:56:47;65256.97;;;0.81;100.00
37132;BME280;23035;50.032;21.978;2023-02-11T18:01:54;65248.00;;;0.75;100.00
37132;BME280;23035;50.032;21.978;2023-02-11T18:06:59;65303.25;;;1.25;100.00
37132;BME280;23035;50.032;21.978;2023-02-11T18:12:04;65299.53;;;1.22;100.00
37132;BME280;23035;50.032;21.978;2023-02-11T18:17:10;65309.53;;;1.29;100.00
37132;BME280;23035;50.032;21.978;2023-02-11T18:22:15;65302.19;;;1.24;100.00
37132;BME280;23035;50.032;21.978;2023-02-11T18:27:20;65361.81;;;1.81;100.00
37132;BME280;23035;50.032;21.978;2023-02-11T18:32:27;65288.88;;;1.11;100.00
37132;BME280;23035;50.032;21.978;2023-02-11T18:37:32;65351.16;;;1.71;100.00
37132;BME280;23035;50.032;21.978;2023-02-11T18:42:36;65322.50;;;1.46;100.00
37132;BME280;23035;50.032;21.978;2023-02-11T18:47:42;65311.66;;;1.31;100.00
37132;BME280;23035;50.032;21.978;2023-02-11T18:52:47;65329.88;;;1.51;100.00
37132;BME280;23035;50.032;21.978;2023-02-11T18:57:51;65373.50;;;1.92;100.00
37132;BME280;23035;50.032;21.978;2023-02-11T19:02:58;65321.88;;;1.43;100.00
37132;BME280;23035;50.032;21.978;2023-02-11T19:08:04;65306.53;;;1.31;100.00
37132;BME280;23035;50.032;21.978;2023-02-11T19:13:10;65323.56;;;1.47;100.00
37132;BME280;23035;50.032;21.978;2023-02-11T19:18:16;65410.28;;;2.27;100.00
37132;BME280;23035;50.032;21.978;2023-02-11T19:23:21;65393.22;;;2.11;100.00
37132;BME280;23035;50.032;21.978;2023-02-11T19:28:25;65360.22;;;1.80;100.00
37132;BME280;23035;50.032;21.978;2023-02-11T19:33:31;65379.91;;;1.98;100.00
37132;BME280;23035;50.032;21.978;2023-02-11T19:38:37;65371.91;;;1.91;100.00
37132;BME280;23035;50.032;21.978;2023-02-11T19:43:41;65416.66;;;2.34;100.00
37132;BME280;23035;50.032;21.978;2023-02-11T19:48:48;65362.25;;;1.79;100.00
37132;BME280;23035;50.032;21.978;2023-02-11T19:53:52;65382.66;;;2.04;100.00
37132;BME280;23035;50.032;21.978;2023-02-11T19:58:59;65387.03;;;2.10;100.00
37132;BME280;23035;50.032;21.978;2023-02-11T20:04:06;65434.25;;;2.50;100.00
37132;BME280;23035;50.032;21.978;2023-02-11T20:09:12;65451.91;;;2.70;100.00
37132;BME280;23035;50.032;21.978;2023-02-11T20:14:17;65449.59;;;2.63;100.00
37132;BME280;23035;50.032;21.978;2023-02-11T20:19:22;65484.34;;;2.98;100.00
37132;BME280;23035;50.032;21.978;2023-02-11T20:24:27;65457.25;;;2.75;100.00
37132;BME280;23035;50.032;21.978;2023-02-11T20:29:32;65450.22;;;2.66;100.00
37132;BME280;23035;50.032;21.978;2023-02-11T20:34:38;65421.66;;;2.43;100.00
37132;BME280;23035;50.032;21.978;2023-02-11T20:39:43;65463.97;;;2.76;100.00
37132;BME280;23035;50.032;21.978;2023-02-11T20:44:47;65460.88;;;2.76;100.00
37132;BME280;23035;50.032;21.978;2023-02-11T20:49:54;65450.22;;;2.66;100.00
37132;BME280;23035;50.032;21.978;2023-02-11T20:54:59;65429.97;;;2.46;100.00
37132;BME280;23035;50.032;21.978;2023-02-11T21:00:04;65442.31;;;2.61;100.00
37132;BME280;23035;50.032;21.978;2023-02-11T21:05:11;65458.75;;;2.74;100.00
37132;BME280;23035;50.032;21.978;2023-02-11T21:10:15;65456.06;;;2.71;100.00
37132;BME280;23035;50.032;21.978;2023-02-11T21:15:20;65463.53;;;2.78;100.00
37132;BME280;23035;50.032;21.978;2023-02-11T21:20:27;65469.41;;;2.84;100.00
37132;BME280;23035;50.032;21.978;2023-02-11T21:25:32;65427.50;;;2.49;100.00
37132;BME280;23035;50.032;21.978;2023-02-11T21:30:36;65432.53;;;2.46;100.00
37132;BME280;23035;50.032;21.978;2023-02-11T21:35:42;65466.22;;;2.81;100.00
37132;BME280;23035;50.032;21.978;2023-02-11T21:40:47;65437.44;;;2.53;100.00
37132;BME280;23035;50.032;21.978;2023-02-11T21:45:52;65451.28;;;2.67;100.00
37132;BME280;23035;50.032;21.978;2023-02-11T21:50:58;65465.56;;;2.78;100.00
37132;BME280;23035;50.032;21.978;2023-02-11T21:56:08;65450.56;;;2.61;100.00
37132;BME280;23035;50.032;21.978;2023-02-11T22:01:15;65463.53;;;2.78;100.00
37132;BME280;23035;50.032;21.978;2023-02-11T22:06:23;65474.31;;;2.91;100.00
37132;BME280;23035;50.032;21.978;2023-02-11T22:11:28;65451.81;;;2.67;100.00
37132;BME280;23035;50.032;21.978;2023-02-11T22:16:33;65449.78;;;2.68;100.00
37132;BME280;23035;50.032;21.978;2023-02-11T22:21:39;65445.97;;;2.62;100.00
37132;BME280;23035;50.032;21.978;2023-02-11T22:26:45;65448.00;;;2.61;100.00
37132;BME280;23035;50.032;21.978;2023-02-11T22:31:49;65454.59;;;2.72;100.00
37132;BME280;23035;50.032;21.978;2023-02-11T22:36:55;65454.91;;;2.68;100.00
37132;BME280;23035;50.032;21.978;2023-02-11T22:42:00;65479.72;;;2.99;100.00
37132;BME280;23035;50.032;21.978;2023-02-11T22:47:05;65445.53;;;2.64;100.00
37132;BME280;23035;50.032;21.978;2023-02-11T22:52:11;65465.13;;;2.80;100.00
37132;BME280;23035;50.032;21.978;2023-02-11T22:57:16;65480.06;;;2.94;100.00
37132;BME280;23035;50.032;21.978;2023-02-11T23:02:20;65458.75;;;2.74;100.00
37132;BME280;23035;50.032;21.978;2023-02-11T23:07:26;65431.69;;;2.50;100.00
37132;BME280;23035;50.032;21.978;2023-02-11T23:12:31;65474.53;;;2.84;100.00
37132;BME280;23035;50.032;21.978;2023-02-11T23:17:35;65490.72;;;3.04;100.00
37132;BME280;23035;50.032;21.978;2023-02-11T23:22:41;65449.69;;;2.65;100.00
37132;BME280;23035;50.032;21.978;2023-02-11T23:27:45;65422.00;;;2.39;100.00
37132;BME280;23035;50.032;21.978;2023-02-11T23:32:50;65442.13;;;2.55;100.00
37132;BME280;23035;50.032;21.978;2023-02-11T23:37:56;65450.66;;;2.64;100.00
37132;BME280;23035;50.032;21.978;2023-02-11T23:43:01;65448.81;;;2.69;100.00
37132;BME280;23035;50.032;21.978;2023-02-11T23:48:05;65462.38;;;2.75;100.00
37132;BME280;23035;50.032;21.978;2023-02-11T23:53:11;65482.19;;;2.96;100.00
37132;BME280;23035;50.032;21.978;2023-02-11T23:58:15;65472.69;;;2.90;100.00
